createdAt,value
2022-09-25T00:01:49.619Z,3.13
2022-09-25T00:04:16.087Z,2.92
2022-09-25T00:06:42.424Z,3.35
2022-09-25T00:09:10.222Z,3.40
2022-09-25T00:11:38.483Z,3.30
2022-09-25T00:14:04.887Z,2.85
2022-09-25T00:16:32.755Z,2.75
2022-09-25T00:19:18.077Z,2.70
2022-09-25T00:21:44.724Z,2.97
2022-09-25T00:24:13.291Z,2.65
2022-09-25T00:26:41.807Z,3.10
2022-09-25T00:29:10.555Z,3.05
2022-09-25T00:31:36.886Z,2.90
2022-09-25T00:34:05.130Z,2.55
2022-09-25T00:36:31.788Z,2.70
2022-09-25T00:38:58.276Z,2.65
2022-09-25T00:41:27.030Z,2.78
2022-09-25T00:43:56.168Z,2.70
2022-09-25T00:46:40.819Z,2.70
2022-09-25T00:52:01.295Z,2.75
2022-09-25T00:54:33.715Z,2.55
2022-09-25T00:57:04.226Z,2.50
2022-09-25T00:59:34.316Z,2.65
2022-09-25T01:02:00.860Z,2.90
2022-09-25T01:04:30.852Z,2.85
2022-09-25T01:06:57.373Z,3.65
2022-09-25T01:09:23.864Z,2.67
2022-09-25T01:11:50.222Z,3.05
2022-09-25T01:14:17.130Z,2.50
2022-09-25T01:17:02.466Z,2.50
2022-09-25T01:19:35.382Z,2.90
2022-09-25T01:22:11.501Z,3.45
2022-09-25T01:24:44.625Z,3.03
2022-09-25T01:27:38.187Z,2.50
2022-09-25T01:30:08.494Z,2.97
2022-09-25T01:33:05.604Z,3.13
2022-09-25T01:35:40.719Z,2.83
2022-09-25T01:38:15.116Z,2.90
2022-09-25T01:40:59.571Z,2.42
2022-09-25T01:43:33.413Z,2.97
2022-09-25T01:46:11.360Z,3.05
2022-09-25T01:48:38.611Z,3.13
2022-09-25T01:51:17.614Z,3.03
2022-09-25T01:53:48.753Z,3.85
2022-09-25T01:56:23.224Z,4.13
2022-09-25T01:58:55.937Z,3.67
2022-09-25T02:01:28.762Z,3.60
2022-09-25T02:04:01.192Z,3.63
2022-09-25T02:06:27.894Z,3.97
2022-09-25T02:09:03.582Z,3.88
2022-09-25T02:11:34.753Z,3.05
2022-09-25T02:14:13.197Z,3.55
2022-09-25T02:16:44.099Z,3.55
2022-09-25T02:19:31.192Z,3.92
2022-09-25T02:22:24.736Z,3.88
2022-09-25T02:24:59.122Z,2.83
2022-09-25T02:27:27.482Z,4.00
2022-09-25T02:29:55.151Z,3.80
2022-09-25T02:32:24.679Z,3.90
2022-09-25T02:34:51.966Z,3.50
2022-09-25T02:37:18.615Z,2.70
2022-09-25T02:39:47.966Z,3.88
2022-09-25T02:42:26.161Z,3.65
2022-09-25T02:45:12.519Z,3.85
2022-09-25T02:48:07.218Z,3.30
2022-09-25T02:51:04.829Z,3.10
2022-09-25T02:53:42.124Z,2.85
2022-09-25T02:56:14.962Z,2.75
2022-09-25T02:58:44.719Z,3.15
2022-09-25T03:01:14.407Z,3.40
2022-09-25T03:03:41.891Z,3.25
2022-09-25T03:06:08.939Z,3.50
2022-09-25T03:08:38.519Z,3.47
2022-09-25T03:11:10.864Z,4.15
2022-09-25T03:13:37.474Z,4.47
2022-09-25T03:16:16.325Z,3.58
2022-09-25T03:18:42.860Z,3.55
2022-09-25T03:21:09.464Z,3.20
2022-09-25T03:23:35.932Z,3.78
2022-09-25T03:26:04.435Z,3.30
2022-09-25T03:28:31.491Z,3.45
2022-09-25T03:31:00.731Z,3.22
2022-09-25T03:33:33.823Z,3.13
2022-09-25T03:36:02.107Z,2.90
2022-09-25T03:38:28.626Z,3.45
2022-09-25T03:40:55.032Z,3.10
2022-09-25T03:43:21.423Z,3.17
2022-09-25T03:45:47.796Z,3.17
2022-09-25T03:48:14.500Z,3.63
2022-09-25T03:50:41.895Z,3.92
2022-09-25T03:53:08.239Z,4.10
2022-09-25T03:55:34.582Z,3.58
2022-09-25T03:58:00.906Z,3.22
2022-09-25T04:00:27.235Z,3.15
2022-09-25T04:02:53.631Z,3.35
2022-09-25T04:05:21.203Z,3.40
2022-09-25T04:07:48.065Z,4.10
2022-09-25T04:10:14.634Z,4.10
2022-09-25T04:12:43.309Z,3.65
2022-09-25T04:15:09.973Z,4.28
2022-09-25T04:17:36.285Z,4.70
2022-09-25T04:20:02.610Z,4.13
2022-09-25T04:22:28.929Z,4.35
2022-09-25T04:24:55.328Z,3.97
2022-09-25T04:27:22.860Z,3.92
2022-09-25T04:29:49.633Z,3.72
2022-09-25T04:32:35.460Z,3.80
2022-09-25T04:35:01.923Z,4.05
2022-09-25T04:37:28.288Z,4.03
2022-09-25T04:39:56.042Z,3.55
2022-09-25T04:42:24.455Z,3.40
2022-09-25T04:44:54.953Z,3.40
2022-09-25T04:47:22.574Z,4.68
2022-09-25T04:49:49.227Z,3.30
2022-09-25T04:52:16.486Z,4.03
2022-09-25T04:54:42.853Z,4.43
2022-09-25T04:57:11.227Z,4.43
2022-09-25T04:59:37.893Z,4.70
2022-09-25T05:02:04.301Z,4.00
2022-09-25T05:04:30.930Z,3.67
2022-09-25T05:06:57.342Z,3.65
2022-09-25T05:09:23.730Z,4.03
2022-09-25T05:11:50.046Z,3.92
2022-09-25T05:14:16.700Z,4.45
2022-09-25T05:16:43.102Z,3.35
2022-09-25T05:19:09.599Z,4.53
2022-09-25T05:21:35.901Z,4.63
2022-09-25T05:24:02.703Z,8.27
2022-09-25T05:26:29.914Z,8.00
2022-09-25T05:28:56.573Z,10.07
2022-09-25T05:31:22.900Z,9.93
2022-09-25T05:33:49.283Z,10.25
2022-09-25T05:36:18.680Z,12.35
2022-09-25T05:38:45.033Z,14.85
2022-09-25T05:41:11.382Z,13.48
2022-09-25T05:43:47.354Z,14.00
2022-09-25T05:46:15.002Z,13.23
2022-09-25T05:48:41.595Z,14.50
2022-09-25T05:51:08.438Z,15.18
2022-09-25T05:53:34.906Z,15.93
2022-09-25T05:56:03.380Z,16.63
2022-09-25T05:58:31.999Z,15.70
2022-09-25T06:01:01.403Z,17.83
2022-09-25T06:03:29.723Z,16.92
2022-09-25T06:05:57.556Z,19.05
2022-09-25T06:08:24.625Z,17.88
2022-09-25T06:10:55.180Z,19.85
2022-09-25T06:13:23.486Z,19.38
2022-09-25T06:15:52.284Z,17.52
2022-09-25T06:18:21.330Z,20.25
2022-09-25T06:20:48.495Z,19.05
2022-09-25T06:23:15.035Z,19.23
2022-09-25T06:25:41.617Z,18.35
2022-09-25T06:28:08.447Z,19.02
2022-09-25T06:30:36.271Z,18.42
2022-09-25T06:33:10.767Z,17.55
2022-09-25T06:35:41.171Z,18.98
2022-09-25T06:38:07.482Z,18.63
2022-09-25T06:40:34.180Z,18.50
2022-09-25T06:43:02.083Z,19.52
2022-09-25T06:45:30.162Z,18.58
2022-09-25T06:48:05.038Z,19.60
2022-09-25T06:50:51.609Z,20.17
2022-09-25T06:53:19.871Z,21.20
2022-09-25T06:55:46.801Z,18.58
2022-09-25T06:58:19.046Z,19.08
2022-09-25T07:00:53.283Z,18.70
2022-09-25T07:06:06.881Z,17.60
2022-09-25T07:08:33.395Z,18.35
2022-09-25T07:11:00.120Z,17.52
2022-09-25T07:13:29.887Z,16.80
2022-09-25T07:15:58.170Z,16.80
2022-09-25T07:18:25.455Z,17.70
2022-09-25T07:20:52.794Z,18.10
2022-09-25T07:23:20.627Z,16.83
2022-09-25T07:25:47.300Z,17.27
2022-09-25T07:28:14.519Z,17.10
2022-09-25T07:30:44.484Z,15.65
2022-09-25T07:33:10.861Z,17.15
2022-09-25T07:35:37.498Z,16.08
2022-09-25T07:38:04.316Z,16.17
2022-09-25T07:40:32.229Z,15.80
2022-09-25T07:43:00.041Z,14.40
2022-09-25T07:45:26.425Z,15.63
2022-09-25T07:47:56.538Z,16.65
2022-09-25T07:50:23.121Z,15.00
2022-09-25T07:52:49.656Z,15.25
2022-09-25T07:55:16.006Z,14.82
2022-09-25T07:57:43.777Z,17.13
2022-09-25T08:00:11.003Z,15.55
2022-09-25T08:02:39.823Z,14.88
2022-09-25T08:05:06.722Z,15.98
2022-09-25T08:07:33.059Z,15.05
2022-09-25T08:09:59.360Z,14.43
2022-09-25T08:12:25.716Z,13.88
2022-09-25T08:14:52.805Z,13.90
2022-09-25T08:17:19.693Z,15.00
2022-09-25T08:19:46.143Z,13.82
2022-09-25T08:22:12.757Z,14.15
2022-09-25T08:24:39.061Z,13.75
2022-09-25T08:27:05.517Z,13.25
2022-09-25T08:29:31.846Z,13.65
2022-09-25T08:31:58.372Z,13.38
2022-09-25T08:34:41.636Z,13.98
2022-09-25T08:37:09.433Z,13.45
2022-09-25T08:39:35.831Z,15.05
2022-09-25T08:42:02.668Z,12.02
2022-09-25T08:45:09.098Z,13.60
2022-09-25T08:50:22.380Z,14.40
2022-09-25T08:52:52.119Z,12.75
2022-09-25T08:55:50.951Z,13.50
2022-09-25T08:58:24.593Z,14.48
2022-09-25T09:00:57.579Z,14.55
2022-09-25T09:03:25.765Z,13.93
2022-09-25T09:05:57.845Z,13.43
2022-09-25T09:08:25.488Z,13.43
2022-09-25T09:10:55.580Z,14.10
2022-09-25T09:13:30.660Z,14.10
2022-09-25T09:16:07.392Z,15.02
2022-09-25T09:18:38.805Z,14.10
2022-09-25T09:21:16.017Z,14.50
2022-09-25T09:23:51.451Z,13.88
2022-09-25T09:26:27.745Z,14.40
2022-09-25T09:29:10.210Z,14.35
2022-09-25T09:31:42.445Z,13.38
2022-09-25T09:34:46.425Z,14.27
2022-09-25T09:37:24.823Z,13.88
2022-09-25T09:40:17.189Z,14.57
2022-09-25T09:43:08.428Z,14.23
2022-09-25T09:45:44.189Z,14.45
2022-09-25T09:48:26.877Z,13.10
2022-09-25T09:50:56.743Z,12.45
2022-09-25T09:53:42.731Z,13.60
2022-09-25T09:56:18.904Z,12.77
2022-09-25T09:58:48.228Z,12.05
2022-09-25T10:01:37.041Z,11.52
2022-09-25T10:04:10.148Z,12.35
2022-09-25T10:06:39.145Z,11.05
2022-09-25T10:09:06.786Z,11.18
2022-09-25T10:11:34.819Z,9.88
2022-09-25T10:14:03.536Z,9.60
2022-09-25T10:16:30.196Z,9.93
2022-09-25T10:19:11.762Z,8.40
2022-09-25T10:21:44.724Z,8.00
2022-09-25T10:24:49.354Z,7.68
2022-09-25T10:27:29.101Z,6.78
2022-09-25T10:30:01.836Z,6.00
2022-09-25T10:32:29.204Z,6.20
2022-09-25T10:34:56.158Z,4.93
2022-09-25T10:37:34.606Z,14.45
2022-09-25T10:40:06.763Z,8.73
2022-09-25T10:42:41.038Z,4.82
2022-09-25T10:48:11.680Z,3.33
2022-09-25T10:53:05.517Z,2.22
2022-09-25T10:55:37.098Z,2.10
2022-09-25T10:58:15.023Z,1.95
2022-09-25T11:00:54.925Z,2.47
2022-09-25T11:03:27.658Z,1.70
2022-09-25T11:05:57.839Z,2.03
2022-09-25T11:08:26.498Z,2.13
2022-09-25T11:10:56.969Z,1.88
2022-09-25T11:13:27.842Z,2.53
2022-09-25T11:15:59.060Z,1.70
2022-09-25T11:18:46.062Z,1.50
2022-09-25T11:21:35.579Z,1.70
2022-09-25T11:24:25.057Z,1.80
2022-09-25T11:27:01.406Z,2.03
2022-09-25T11:29:50.687Z,1.60
2022-09-25T11:32:53.153Z,2.03
2022-09-25T11:35:57.009Z,2.20
2022-09-25T11:39:07.168Z,2.05
2022-09-25T11:41:49.211Z,2.53
2022-09-25T11:44:31.601Z,2.50
2022-09-25T11:47:08.886Z,2.60
2022-09-25T11:49:38.072Z,2.80
2022-09-25T11:52:22.967Z,3.20
2022-09-25T11:55:31.715Z,2.85
2022-09-25T11:58:10.094Z,2.45
2022-09-25T12:00:46.683Z,3.10
2022-09-25T12:03:31.115Z,2.80
2022-09-25T12:06:06.011Z,3.58
2022-09-25T12:09:11.183Z,2.65
2022-09-25T12:11:55.646Z,2.47
2022-09-25T12:14:27.650Z,3.17
2022-09-25T12:16:59.640Z,2.70
2022-09-25T12:19:42.492Z,2.67
2022-09-25T12:22:17.017Z,3.03
2022-09-25T12:25:02.486Z,2.65
2022-09-25T12:27:50.524Z,2.70
2022-09-25T12:30:26.938Z,2.55
2022-09-25T12:33:09.374Z,2.67
2022-09-25T12:35:40.412Z,2.75
2022-09-25T12:38:34.739Z,2.72
2022-09-25T12:41:10.750Z,2.92
2022-09-25T12:43:48.000Z,2.60
2022-09-25T12:46:26.348Z,2.60
2022-09-25T12:48:58.661Z,2.78
2022-09-25T12:51:40.971Z,2.67
2022-09-25T12:54:25.586Z,2.30
2022-09-25T12:59:33.691Z,2.60
2022-09-25T13:02:18.779Z,2.50
2022-09-25T13:04:54.927Z,2.72
2022-09-25T13:07:41.077Z,2.35
2022-09-25T13:10:19.154Z,2.60
2022-09-25T13:12:46.047Z,2.63
2022-09-25T13:15:24.198Z,2.55
2022-09-25T13:17:51.179Z,2.25
2022-09-25T13:20:26.374Z,2.60
2022-09-25T13:22:56.623Z,2.38
2022-09-25T13:25:23.806Z,1.92
2022-09-25T13:27:54.035Z,2.20
2022-09-25T13:30:28.661Z,1.67
2022-09-25T13:32:59.334Z,2.40
2022-09-25T13:35:26.145Z,2.28
2022-09-25T13:37:55.164Z,2.38
2022-09-25T13:40:45.750Z,1.90
2022-09-25T13:43:24.252Z,1.90
2022-09-25T13:46:21.568Z,1.95
2022-09-25T13:48:48.255Z,2.63
2022-09-25T13:51:20.208Z,2.05
2022-09-25T13:54:04.941Z,2.38
2022-09-25T13:56:45.842Z,1.88
2022-09-25T13:59:16.079Z,2.22
2022-09-25T14:01:46.629Z,2.00
2022-09-25T14:04:15.787Z,1.90
2022-09-25T14:06:44.540Z,1.58
2022-09-25T14:09:13.572Z,1.55
2022-09-25T14:11:42.780Z,1.13
2022-09-25T14:14:14.338Z,1.48
2022-09-25T14:16:51.116Z,1.65
2022-09-25T14:19:20.330Z,1.20
2022-09-25T14:21:48.073Z,1.40
2022-09-25T14:24:24.838Z,1.48
2022-09-25T14:26:52.047Z,1.10
2022-09-25T14:29:27.235Z,1.55
2022-09-25T14:32:53.366Z,1.30
2022-09-25T14:35:26.844Z,1.30
2022-09-25T14:38:17.377Z,1.85
2022-09-25T14:41:00.732Z,3.03
2022-09-25T14:43:30.235Z,1.60
2022-09-25T14:46:00.309Z,1.90
2022-09-25T14:48:35.881Z,1.70
2022-09-25T14:51:09.474Z,1.77
2022-09-25T14:53:44.245Z,1.75
2022-09-25T14:56:12.553Z,1.77
2022-09-25T14:58:44.135Z,1.80
2022-09-25T15:01:17.821Z,1.77
2022-09-25T15:03:46.980Z,1.60
2022-09-25T15:06:16.353Z,1.88
2022-09-25T15:08:42.969Z,1.70
2022-09-25T15:11:16.061Z,2.60
2022-09-25T15:13:42.933Z,2.03
2022-09-25T15:16:40.444Z,2.22
2022-09-25T15:19:14.018Z,1.60
2022-09-25T15:21:42.640Z,1.67
2022-09-25T15:24:15.395Z,1.60
2022-09-25T15:26:49.509Z,2.08
2022-09-25T15:29:18.569Z,1.70
2022-09-25T15:31:51.199Z,1.60
2022-09-25T15:34:43.946Z,1.92
2022-09-25T15:37:27.758Z,1.80
2022-09-25T15:39:54.317Z,1.47
2022-09-25T15:42:20.681Z,1.70
2022-09-25T15:44:47.973Z,2.10
2022-09-25T15:47:36.616Z,1.67
2022-09-25T15:50:06.051Z,2.13
2022-09-25T15:52:33.844Z,1.42
2022-09-25T15:55:10.380Z,2.05
2022-09-25T15:57:36.875Z,2.10
2022-09-25T16:00:34.035Z,1.83
2022-09-25T16:03:39.674Z,1.52
2022-09-25T16:06:06.978Z,2.55
2022-09-25T16:08:36.177Z,2.13
2022-09-25T16:11:08.297Z,2.70
2022-09-25T16:13:37.311Z,2.45
2022-09-25T16:16:03.899Z,2.60
2022-09-25T16:18:42.288Z,2.58
2022-09-25T16:21:21.879Z,2.60
2022-09-25T16:24:01.794Z,2.50
2022-09-25T16:26:39.616Z,2.28
2022-09-25T16:29:11.804Z,2.28
2022-09-25T16:31:43.480Z,1.77
2022-09-25T16:34:25.642Z,2.50
2022-09-25T16:36:54.143Z,2.53
2022-09-25T16:39:28.353Z,1.92
2022-09-25T16:41:55.870Z,2.15
2022-09-25T16:44:31.169Z,1.67
2022-09-25T16:46:57.377Z,1.65
2022-09-25T16:49:24.797Z,1.90
2022-09-25T16:51:53.146Z,1.98
2022-09-25T16:54:21.324Z,2.20
2022-09-25T16:56:48.658Z,2.10
2022-09-25T16:59:17.432Z,2.05
2022-09-25T17:01:44.591Z,2.38
2022-09-25T17:04:13.077Z,2.42
2022-09-25T17:06:41.355Z,2.28
2022-09-25T17:09:12.221Z,2.60
2022-09-25T17:11:40.020Z,2.80
2022-09-25T17:14:06.788Z,2.20
2022-09-25T17:16:34.269Z,2.42
2022-09-25T17:19:01.606Z,2.40
2022-09-25T17:21:28.066Z,2.92
2022-09-25T17:23:54.561Z,2.53
2022-09-25T17:26:22.640Z,2.75
2022-09-25T17:28:50.483Z,2.63
2022-09-25T17:31:19.953Z,2.42
2022-09-25T17:33:49.737Z,2.70
2022-09-25T17:36:16.574Z,3.55
2022-09-25T17:38:45.910Z,2.83
2022-09-25T17:41:19.452Z,3.25
2022-09-25T17:43:45.784Z,3.70
2022-09-25T17:46:14.717Z,3.45
2022-09-25T17:48:41.135Z,3.35
2022-09-25T17:51:14.219Z,3.20
2022-09-25T17:53:40.735Z,2.70
2022-09-25T17:56:07.056Z,3.33
2022-09-25T17:58:33.367Z,3.08
2022-09-25T18:01:00.786Z,3.17
2022-09-25T18:03:28.247Z,3.20
2022-09-25T18:05:55.115Z,2.80
2022-09-25T18:08:21.459Z,3.20
2022-09-25T18:10:48.957Z,3.22
2022-09-25T18:13:19.900Z,3.45
2022-09-25T18:15:53.862Z,3.53
2022-09-25T18:18:21.767Z,3.47
2022-09-25T18:21:09.638Z,3.42
2022-09-25T18:23:38.243Z,3.50
2022-09-25T18:26:06.233Z,3.30
2022-09-25T18:28:32.557Z,3.42
2022-09-25T18:30:58.912Z,3.00
2022-09-25T18:33:25.505Z,3.42
2022-09-25T18:35:52.766Z,3.38
2022-09-25T18:38:19.414Z,3.10
2022-09-25T18:40:45.942Z,3.30
2022-09-25T18:43:12.666Z,3.03
2022-09-25T18:45:40.810Z,2.90
2022-09-25T18:48:07.179Z,3.53
2022-09-25T18:50:35.075Z,3.42
2022-09-25T18:53:01.425Z,3.08
2022-09-25T18:55:27.929Z,3.08
2022-09-25T18:57:54.942Z,3.33
2022-09-25T19:00:21.999Z,3.67
2022-09-25T19:02:48.401Z,3.85
2022-09-25T19:05:17.041Z,3.50
2022-09-25T19:07:43.545Z,3.83
2022-09-25T19:10:10.882Z,3.70
2022-09-25T19:12:37.486Z,3.50
2022-09-25T19:15:04.616Z,3.72
2022-09-25T19:17:31.740Z,3.70
2022-09-25T19:19:58.062Z,3.60
2022-09-25T19:22:24.450Z,3.33
2022-09-25T19:24:52.514Z,3.65
2022-09-25T19:27:19.356Z,3.90
2022-09-25T19:29:45.862Z,3.25
2022-09-25T19:32:14.014Z,3.90
2022-09-25T19:34:40.856Z,3.25
2022-09-25T19:37:08.012Z,3.42
2022-09-25T19:39:53.406Z,2.95
2022-09-25T19:42:19.870Z,3.33
2022-09-25T19:44:47.084Z,3.38
2022-09-25T19:47:13.602Z,3.38
2022-09-25T19:49:39.963Z,2.88
2022-09-25T19:52:06.481Z,3.42
2022-09-25T19:54:33.001Z,3.00
2022-09-25T19:56:59.780Z,3.78
2022-09-25T19:59:26.117Z,3.63
2022-09-25T20:01:53.353Z,2.97
2022-09-25T20:04:19.734Z,2.97
2022-09-25T20:06:46.761Z,3.00
2022-09-25T20:09:13.346Z,2.72
2022-09-25T20:11:39.877Z,3.08
2022-09-25T20:14:07.635Z,3.78
2022-09-25T20:16:34.117Z,3.70
2022-09-25T20:19:03.241Z,3.45
2022-09-25T20:21:36.310Z,4.05
2022-09-25T20:24:05.162Z,3.50
2022-09-25T20:26:31.857Z,3.50
2022-09-25T20:29:00.872Z,3.15
2022-09-25T20:31:29.168Z,3.05
2022-09-25T20:33:55.817Z,2.80
2022-09-25T20:36:22.676Z,3.80
2022-09-25T20:38:53.278Z,3.60
2022-09-25T20:41:20.897Z,3.63
2022-09-25T20:43:51.850Z,3.70
2022-09-25T20:46:19.560Z,3.20
2022-09-25T20:48:47.023Z,3.60
2022-09-25T20:51:15.474Z,3.47
2022-09-25T20:53:42.957Z,3.25
2022-09-25T20:56:14.266Z,2.72
2022-09-25T20:58:42.111Z,3.17
2022-09-25T21:01:11.405Z,2.85
2022-09-25T21:03:40.311Z,3.25
2022-09-25T21:06:10.303Z,2.78
2022-09-25T21:08:36.684Z,3.15
2022-09-25T21:11:03.403Z,2.50
2022-09-25T21:13:31.599Z,2.60
2022-09-25T21:16:09.450Z,2.88
2022-09-25T21:18:36.785Z,2.97
2022-09-25T21:21:05.316Z,3.20
2022-09-25T21:23:31.726Z,4.00
2022-09-25T21:26:13.532Z,4.10
2022-09-25T21:28:42.272Z,2.95
2022-09-25T21:31:14.506Z,3.42
2022-09-25T21:33:41.415Z,3.40
2022-09-25T21:36:12.591Z,4.20
2022-09-25T21:38:39.419Z,4.80
2022-09-25T21:41:13.951Z,4.38
2022-09-25T21:43:40.850Z,4.75
2022-09-25T21:46:10.921Z,3.90
2022-09-25T21:48:38.650Z,3.63
2022-09-25T21:51:06.949Z,4.18
2022-09-25T21:53:37.608Z,3.25
2022-09-25T21:56:18.741Z,3.83
2022-09-25T21:58:46.087Z,2.85
2022-09-25T22:01:15.961Z,2.83
2022-09-25T22:03:43.915Z,2.30
2022-09-25T22:06:15.791Z,3.15
2022-09-25T22:08:44.434Z,3.00
2022-09-25T22:11:11.653Z,2.83
2022-09-25T22:13:40.450Z,2.50
2022-09-25T22:16:09.187Z,3.10
2022-09-25T22:18:47.083Z,4.15
2022-09-25T22:21:15.369Z,3.03
2022-09-25T22:23:42.269Z,3.17
2022-09-25T22:26:08.673Z,3.17
2022-09-25T22:28:35.754Z,3.33
2022-09-25T22:31:22.843Z,3.33
2022-09-25T22:33:53.892Z,3.40
2022-09-25T22:36:20.499Z,3.45
2022-09-25T22:38:46.807Z,3.45
2022-09-25T22:41:14.091Z,3.92
2022-09-25T22:43:41.467Z,3.58
2022-09-25T22:46:09.236Z,4.05
2022-09-25T22:48:36.215Z,3.83
2022-09-25T22:51:08.539Z,3.38
2022-09-25T22:53:35.598Z,3.25
2022-09-25T22:56:08.005Z,3.65
2022-09-25T22:58:34.370Z,2.80
2022-09-25T23:01:02.106Z,2.90
2022-09-25T23:03:28.609Z,2.85
2022-09-25T23:05:54.954Z,2.30
2022-09-25T23:08:21.296Z,2.55
2022-09-25T23:11:06.139Z,2.67
2022-09-25T23:13:34.044Z,2.90
2022-09-25T23:16:07.835Z,2.30
2022-09-25T23:18:35.821Z,2.78
2022-09-25T23:21:02.173Z,2.20
2022-09-25T23:23:28.675Z,2.35
2022-09-25T23:25:54.989Z,2.85
2022-09-25T23:28:21.895Z,2.72
2022-09-25T23:30:48.260Z,2.20
2022-09-25T23:33:14.607Z,2.50
2022-09-25T23:35:40.942Z,2.67
2022-09-25T23:38:07.399Z,2.72
2022-09-25T23:40:33.772Z,2.63
2022-09-25T23:43:01.862Z,3.28
2022-09-25T23:45:28.372Z,2.50
2022-09-25T23:47:54.804Z,2.58
2022-09-25T23:50:21.127Z,2.45
2022-09-25T23:52:47.442Z,2.83
2022-09-25T23:55:14.143Z,2.63
2022-09-25T23:57:40.587Z,2.55
